This is the latest recevied weather packets stored in our database for station/object Aldingen. If no packets are shown the sender has not sent any weather packets the latest 10 day(s).
| Time | Temp. | Humidity | Pressure | Rain* | Wind** | Luminosity | Snow |
|---|---|---|---|---|---|---|---|
| 1777834930 | 13.89° C | 61% | 1013.3 hPa | 0 mm | - | - | - |
| 1777833130 | 14.44° C | 57% | 1013.1 hPa | 0 mm | - | - | - |
| 1777831330 | 14.44° C | 56% | 1013 hPa | 0 mm | - | - | - |
| 1777829530 | 15.56° C | 52% | 1012.4 hPa | 0 mm | - | - | - |
| 1777827731 | 17.22° C | 41% | 1013.2 hPa | 0 mm | - | - | - |
| 1777825930 | 18.33° C | 36% | 1012.5 hPa | 0 mm | - | - | - |
| 1777824131 | 18.89° C | 49% | 1011.9 hPa | 0 mm | - | - | - |
| 1777822330 | 19.44° C | 47% | 1011.7 hPa | 0 mm | - | - | - |
| 1777820530 | 19.44° C | 48% | 1011.7 hPa | 0 mm | - | - | - |
| 1777818730 | 21.11° C | 44% | 1011.6 hPa | 0 mm | - | - | - |
| 1777816930 | 21.67° C | 43% | 1011.6 hPa | 0 mm | - | - | - |
| 1777815130 | 21.67° C | 42% | 1011.7 hPa | 0 mm | - | - | - |
| 1777813330 | 22.22° C | 41% | 1011.9 hPa | 0 mm | - | - | - |
| 1777811536 | 21.11° C | 40% | 1012.3 hPa | 0 mm | - | - | - |
| 1777809730 | 21.11° C | 43% | 1012.4 hPa | 0 mm | - | - | - |
| 1777807932 | 21.67° C | 45% | 1012.6 hPa | 0 mm | - | - | - |
| 1777806130 | 21.67° C | 44% | 1012.8 hPa | 0 mm | - | - | - |
| 1777804332 | 21.11° C | 45% | 1013.2 hPa | 0 mm | - | - | - |
| 1777802532 | 20° C | 45% | 1013.5 hPa | 0 mm | - | - | - |
| 1777800731 | 20° C | 47% | 1013.8 hPa | 0 mm | - | - | - |
| 1777798930 | 18.89° C | 50% | 1014 hPa | 0 mm | - | - | - |
| 1777797132 | 18.33° C | 54% | 1014.2 hPa | 0 mm | - | - | - |
| 1777795332 | 17.22° C | 60% | 1014.5 hPa | 0 mm | - | - | - |
| 1777793531 | 15.56° C | 71% | 1014.5 hPa | 0 mm | - | - | - |
| 1777791731 | 13.89° C | 74% | 1014.4 hPa | 0 mm | - | - | - |
* Rain since midnight (hover to see other rain measurements)
** Current wind speed in m/s (hover to see current wind gust speed)